Thursday, January 18, 2018, 11:02 PM EST
Back to Local

KBED, Bedford Hanscom Field

Location: Concord, MA, United States Lat: 42.467
Local Time: 11:02 PM EST ( 4:02 GMT) Lon: -71.3
Time Zone: US/Eastern Elev: 134 ft

Show me the last for .
Show Coded

Time T Td Feel RH Dir Speed Gust Alt SLP Vis Weather Sky Remarks
2018-01-18 21:56 20 14 10 77 260° 8 - 29.95 30.00 10 CLR None
2018-01-18 20:56 21 14 12 73 260° 7 - 29.93 29.98 10 SCT180 None
2018-01-18 19:56 23 15 14 71 270° 8 - 29.92 29.97 10 CLR None
2018-01-18 18:56 23 15 16 71 250° 6 - 29.91 29.96 10 CLR 6-hr Min Temp (7pm): 23.0°F
6-hr Max Temp (7pm): 28.9°F
2018-01-18 17:56 25 15 18 65 290° 6 - 29.90 29.95 10 CLR None
2018-01-18 16:56 25 15 17 65 310° 7 - 29.88 29.93 10 CLR None
2018-01-18 15:56 28 16 19 60 320° 9 - 29.86 29.90 10 CLR None
2018-01-18 14:56 29 17 20 60 320° 10 - 29.84 29.89 10 FEW030 None
2018-01-18 13:56 29 16 20 57 330° 10 - 29.85 29.90 10 FEW200 None
2018-01-18 12:56 28 16 17 60 300° 14 - 29.88 29.93 10 CLR 6-hr Min Temp (1pm): 12.9°F
6-hr Max Temp (1pm): 28.0°F
2018-01-18 11:56 27 16 15 62 290° 15 - 29.91 29.96 10 CLR None
2018-01-18 10:56 25 15 14 65 300° 13 - 29.94 29.99 10 FEW200 None
2018-01-18 09:56 23 14 13 67 310° 9 - 29.96 30.00 10 CLR None
2018-01-18 08:56 20 12 13 70 280° 5 - 29.95 30.00 10 CLR None
2018-01-18 07:56 14 10 8 83 300° 3 - 29.96 30.01 10 CLR None
2018-01-18 06:56 16 8 9 70 210° 5 - 29.96 30.01 10 CLR 24-hr Precip Total (7am): 0.24"
6-hr Min Temp (7am): 14.0°F
6-hr Max Temp (7am): 28.0°F
2018-01-18 05:56 18 15 13 88 230° 3 - 29.96 30.01 10 CLR None
2018-01-18 04:56 20 15 12 81 280° 6 - 29.97 30.01 10 CLR None
2018-01-18 03:56 21 17 13 84 290° 6 - 29.98 30.02 10 CLR None
2018-01-18 02:56 23 20 16 87 260° 6 - 30.00 30.05 10 CLR None
2018-01-18 01:56 24 21 17 87 290° 6 - 30.01 30.06 10 CLR None
2018-01-18 01:24 26 22 19 84 290° 6 - 30.00 - 10 FEW019 None
2018-01-18 00:56 28 25 19 88 320° 9 - 30.01 30.06 10 OVC019 6-hr Precip Total (1am): 0.00"
6-hr Min Temp (1am): 28.0°F
6-hr Max Temp (1am): 32.0°F
2018-01-18 00:46 29 25 20 84 320° 9 - 30.02 - 10 BKN018 OVC039 None
2018-01-18 00:16 30 26 22 84 300° 8 - 30.04 - 10 FEW024 OVC037 None
2018-01-18 00:07 30 27 22 88 310° 8 - 30.04 - 10 BKN024 OVC037 None
2018-01-17 23:56 30 27 23 88 310° 7 - 30.05 30.09 10 SCT024 OVC035 24-hr Min Temp (12am): 30.0°F
24-hr Max Temp (12am): 33.1°F
2018-01-17 23:14 30 28 25 92 310° 5 - 30.06 - 10 SCT026 OVC032 None

Support USWX by starting your Amazon purchase here.